Time;durP1;ratioP1;P1;durP2;ratioP2;P2;SDS_P1;SDS_P2;PMS_P1;PMS_P2;Temp;Humidity;BMP_temperature;BMP_pressure;BME280_temperature;BME280_humidity;BME280_pressure;Samples;Min_cycle;Max_cycle;Signal;HPM_P1;HPM_P2
2023/01/20 00:01:49;0.00;0.00;0.62;0.00;0.00;0.62;2.17;1.47;;;20.90;24.70;;;;;;2259737;61;20365;-67
2023/01/20 00:04:36;0.00;0.00;0.62;0.00;0.00;0.62;2.40;1.60;;;20.90;24.70;;;;;;2258392;61;20376;-68
2023/01/20 00:07:20;0.00;0.00;0.62;0.00;0.00;0.62;3.10;1.73;;;20.90;24.70;;;;;;2259712;61;20369;-69
2023/01/20 00:10:07;0.00;0.00;0.62;0.00;0.00;0.62;2.30;1.63;;;20.90;24.70;;;;;;2259301;61;20448;-69
2023/01/20 00:12:51;0.00;0.00;0.62;0.00;0.00;0.62;2.63;1.73;;;20.90;24.70;;;;;;2485496;53;20945;-69
2023/01/20 00:15:36;0.00;0.00;0.62;0.00;0.00;0.62;2.60;1.57;;;20.90;24.70;;;;;;2254460;61;20437;-71
2023/01/20 00:18:21;0.00;0.00;0.62;0.00;0.00;0.62;2.27;1.60;;;20.90;24.70;;;;;;2255259;61;20372;-70
2023/01/20 00:21:10;0.00;0.00;0.62;0.00;0.00;0.62;2.20;1.77;;;20.90;24.70;;;;;;2255958;61;20470;-70
2023/01/20 00:23:55;0.00;0.00;0.62;0.00;0.00;0.62;2.53;1.77;;;20.90;24.70;;;;;;2300176;58;20394;-70
2023/01/20 00:26:40;0.00;0.00;0.62;0.00;0.00;0.62;3.13;2.20;;;20.90;24.70;;;;;;2256959;61;20361;-66
2023/01/20 00:29:25;0.00;0.00;0.62;0.00;0.00;0.62;4.73;2.50;;;20.90;24.60;;;;;;2264248;61;20368;-67
2023/01/20 00:32:09;0.00;0.00;0.62;0.00;0.00;0.62;2.57;1.67;;;20.90;24.60;;;;;;2258957;61;20388;-64
2023/01/20 00:34:54;0.00;0.00;0.62;0.00;0.00;0.62;3.53;2.17;;;20.90;24.60;;;;;;2258619;61;20396;-66
2023/01/20 00:37:42;0.00;0.00;0.62;0.00;0.00;0.62;2.37;1.73;;;20.90;24.50;;;;;;2259392;61;20788;-66
2023/01/20 00:40:26;0.00;0.00;0.62;0.00;0.00;0.62;2.03;1.63;;;20.90;24.50;;;;;;2261418;61;20897;-66
2023/01/20 00:43:12;0.00;0.00;0.62;0.00;0.00;0.62;2.63;1.87;;;20.90;24.50;;;;;;2259452;61;20411;-66
2023/01/20 00:45:56;0.00;0.00;0.62;0.00;0.00;0.62;2.60;1.73;;;20.90;24.40;;;;;;2259558;61;20400;-64
2023/01/20 00:48:42;0.00;0.00;0.62;0.00;0.00;0.62;2.90;1.80;;;20.90;24.40;;;;;;2258669;61;20361;-65
2023/01/20 00:51:26;0.00;0.00;0.62;0.00;0.00;0.62;2.17;1.60;;;20.90;24.40;;;;;;2259499;61;20357;-65
2023/01/20 00:54:13;0.00;0.00;0.62;0.00;0.00;0.62;2.90;1.80;;;20.90;24.40;;;;;;2258777;61;20392;-64
2023/01/20 00:56:58;0.00;0.00;0.62;0.00;0.00;0.62;2.00;1.60;;;20.90;24.90;;;;;;2258537;61;20385;-65
2023/01/20 00:59:43;0.00;0.00;0.62;0.00;0.00;0.62;2.77;1.57;;;20.90;24.40;;;;;;2259775;61;20364;-66
2023/01/20 01:02:27;0.00;0.00;0.62;0.00;0.00;0.62;2.50;1.80;;;20.90;24.30;;;;;;2258701;61;20472;-65
2023/01/20 01:05:12;0.00;0.00;0.62;0.00;0.00;0.62;2.43;2.00;;;20.90;24.30;;;;;;2259331;61;20400;-65
2023/01/20 01:07:57;0.00;0.00;0.62;0.00;0.00;0.62;2.93;2.50;;;20.90;24.40;;;;;;2259059;61;20380;-65
2023/01/20 01:10:44;0.00;0.00;0.62;0.00;0.00;0.62;4.93;3.50;;;20.90;24.30;;;;;;2258606;61;20370;-65
2023/01/20 01:13:29;0.00;0.00;0.62;0.00;0.00;0.62;4.60;4.10;;;20.90;24.20;;;;;;2251415;61;20425;-66
2023/01/20 01:16:14;0.00;0.00;0.62;0.00;0.00;0.62;4.10;3.70;;;20.90;24.10;;;;;;2250267;61;20538;-65
2023/01/20 01:18:59;0.00;0.00;0.62;0.00;0.00;0.62;5.10;4.47;;;20.90;24.00;;;;;;2250661;61;20803;-65
2023/01/20 01:21:44;0.00;0.00;0.62;0.00;0.00;0.62;7.27;3.93;;;20.90;24.00;;;;;;2251763;61;20883;-66
2023/01/20 01:24:28;0.00;0.00;0.62;0.00;0.00;0.62;6.90;5.40;;;20.90;23.90;;;;;;2252265;61;20436;-66
2023/01/20 01:27:15;0.00;0.00;0.62;0.00;0.00;0.62;6.80;5.60;;;20.80;23.70;;;;;;2255087;61;20404;-65
2023/01/20 01:29:59;0.00;0.00;0.62;0.00;0.00;0.62;5.47;4.63;;;20.80;23.60;;;;;;2255461;61;20369;-65
2023/01/20 01:32:44;0.00;0.00;0.62;0.00;0.00;0.62;6.70;5.63;;;20.80;23.60;;;;;;2255119;61;20452;-65
2023/01/20 01:35:28;0.00;0.00;0.62;0.00;0.00;0.62;5.50;4.87;;;20.80;23.50;;;;;;2256146;61;20528;-65
2023/01/20 01:38:13;0.00;0.00;0.62;0.00;0.00;0.62;6.77;5.40;;;20.80;23.50;;;;;;2255639;61;20357;-65
2023/01/20 01:40:58;0.00;0.00;0.62;0.00;0.00;0.62;6.57;5.80;;;20.80;23.40;;;;;;2255467;61;21117;-65
2023/01/20 01:44:03;0.00;0.00;0.62;0.00;0.00;0.62;8.63;6.07;;;20.80;23.40;;;;;;2256064;61;20358;-64
2023/01/20 01:46:47;0.00;0.00;0.62;0.00;0.00;0.62;7.37;4.87;;;20.70;23.30;;;;;;2254802;61;20462;-63
2023/01/20 01:49:32;0.00;0.00;0.62;0.00;0.00;0.62;6.47;5.50;;;20.70;23.30;;;;;;2256198;61;20366;-63
2023/01/20 01:52:19;0.00;0.00;0.62;0.00;0.00;0.62;10.77;6.33;;;20.70;23.20;;;;;;2255486;61;20920;-66
2023/01/20 01:55:06;0.00;0.00;0.62;0.00;0.00;0.62;7.33;5.60;;;20.70;23.20;;;;;;2255062;61;20393;-65
2023/01/20 01:57:51;0.00;0.00;0.62;0.00;0.00;0.62;6.13;5.50;;;20.70;23.30;;;;;;2256072;61;20454;-63
2023/01/20 02:00:38;0.00;0.00;0.62;0.00;0.00;0.62;7.37;6.03;;;20.60;23.10;;;;;;2255781;61;20792;-67
2023/01/20 02:03:25;0.00;0.00;0.62;0.00;0.00;0.62;8.83;6.63;;;20.60;23.10;;;;;;2255528;61;20374;-62
2023/01/20 02:06:11;0.00;0.00;0.62;0.00;0.00;0.62;7.60;5.80;;;20.60;23.10;;;;;;2255997;61;20365;-63
2023/01/20 02:08:56;0.00;0.00;0.62;0.00;0.00;0.62;6.33;5.70;;;20.60;23.10;;;;;;2255251;61;20377;-63
2023/01/20 02:11:47;0.00;0.00;0.62;0.00;0.00;0.62;8.40;6.03;;;20.50;23.00;;;;;;2252377;61;20387;-65
2023/01/20 02:14:37;0.00;0.00;0.62;0.00;0.00;0.62;7.50;6.10;;;20.50;23.00;;;;;;2251442;61;20398;-62
2023/01/20 02:17:29;0.00;0.00;0.62;0.00;0.00;0.62;6.27;5.67;;;20.50;23.00;;;;;;2250842;61;20456;-62
2023/01/20 02:21:18;0.00;0.00;0.62;0.00;0.00;0.62;7.33;6.40;;;20.40;22.90;;;;;;2252372;61;20954;-63
2023/01/20 02:24:56;0.00;0.00;0.62;0.00;0.00;0.62;6.87;5.93;;;20.40;22.80;;;;;;2253629;61;20383;-63
2023/01/20 02:28:08;0.00;0.00;0.62;0.00;0.00;0.62;7.00;6.37;;;20.40;22.80;;;;;;2238786;61;20618;-65
2023/01/20 02:31:25;0.00;0.00;0.62;0.00;0.00;0.62;8.57;5.90;;;20.30;22.70;;;;;;2238275;61;20376;-66
2023/01/20 02:34:18;0.00;0.00;0.62;0.00;0.00;0.62;7.93;5.90;;;20.30;22.80;;;;;;2238955;61;20840;-66
2023/01/20 02:37:11;0.00;0.00;0.62;0.00;0.00;0.62;7.70;6.30;;;20.30;22.80;;;;;;2235114;61;20393;-65
2023/01/20 02:40:11;0.00;0.00;0.62;0.00;0.00;0.62;6.60;5.90;;;20.30;22.70;;;;;;2237979;61;20824;-67
2023/01/20 02:43:06;0.00;0.00;0.62;0.00;0.00;0.62;6.60;5.93;;;20.30;22.70;;;;;;2238764;61;20418;-65
2023/01/20 02:46:00;0.00;0.00;0.62;0.00;0.00;0.62;9.57;7.00;;;20.30;22.70;;;;;;2250958;61;20463;-66
2023/01/20 02:48:50;0.00;0.00;0.62;0.00;0.00;0.62;6.43;5.73;;;20.20;22.60;;;;;;2251438;61;20363;-65
2023/01/20 02:51:43;0.00;0.00;0.62;0.00;0.00;0.62;7.50;6.27;;;20.20;22.60;;;;;;2251738;61;20398;-64
2023/01/20 02:54:31;0.00;0.00;0.62;0.00;0.00;0.62;6.63;6.03;;;20.20;22.60;;;;;;2250885;61;20864;-65
2023/01/20 02:57:22;0.00;0.00;0.62;0.00;0.00;0.62;6.60;6.00;;;20.20;22.60;;;;;;2251490;61;20390;-65
2023/01/20 03:00:16;0.00;0.00;0.62;0.00;0.00;0.62;7.50;6.00;;;20.10;22.60;;;;;;2251688;61;20766;-64
2023/01/20 03:03:05;0.00;0.00;0.62;0.00;0.00;0.62;7.10;6.10;;;20.10;22.70;;;;;;2251809;61;20941;-65
2023/01/20 03:05:54;0.00;0.00;0.62;0.00;0.00;0.62;7.50;5.63;;;20.10;22.60;;;;;;2252033;61;20370;-66
2023/01/20 03:08:41;0.00;0.00;0.62;0.00;0.00;0.62;7.73;5.60;;;20.10;22.70;;;;;;2251123;61;20364;-67
2023/01/20 03:11:26;0.00;0.00;0.62;0.00;0.00;0.62;6.97;6.27;;;20.10;22.60;;;;;;2252062;61;20379;-66
2023/01/20 03:14:13;0.00;0.00;0.62;0.00;0.00;0.62;7.33;6.10;;;20.00;22.60;;;;;;2251260;61;20820;-66
2023/01/20 03:16:58;0.00;0.00;0.62;0.00;0.00;0.62;6.53;4.90;;;20.00;22.60;;;;;;2250669;61;20363;-67
2023/01/20 03:19:43;0.00;0.00;0.62;0.00;0.00;0.62;8.30;7.40;;;20.00;22.60;;;;;;2251852;61;20447;-66
2023/01/20 03:22:29;0.00;0.00;0.62;0.00;0.00;0.62;6.60;6.00;;;20.00;22.70;;;;;;2251561;61;20677;-66
2023/01/20 03:25:16;0.00;0.00;0.62;0.00;0.00;0.62;7.23;5.83;;;19.90;22.60;;;;;;2252367;61;20382;-65
2023/01/20 03:28:01;0.00;0.00;0.62;0.00;0.00;0.62;8.57;7.20;;;19.90;22.60;;;;;;2255485;61;20411;-65
2023/01/20 03:30:46;0.00;0.00;0.62;0.00;0.00;0.62;7.07;6.30;;;19.90;22.60;;;;;;2255025;61;20409;-65
2023/01/20 03:33:32;0.00;0.00;0.62;0.00;0.00;0.62;6.60;5.90;;;19.80;22.50;;;;;;2255479;61;20361;-65
2023/01/20 03:36:18;0.00;0.00;0.62;0.00;0.00;0.62;7.63;6.90;;;19.80;22.50;;;;;;2254731;61;20428;-65
2023/01/20 03:39:03;0.00;0.00;0.62;0.00;0.00;0.62;6.17;5.57;;;19.70;22.50;;;;;;2254884;61;20416;-64
2023/01/20 03:42:01;0.00;0.00;0.62;0.00;0.00;0.62;8.90;7.47;;;19.70;22.50;;;;;;2255943;61;20940;-65
2023/01/20 03:45:01;0.00;0.00;0.62;0.00;0.00;0.62;7.07;5.97;;;19.60;22.50;;;;;;2255127;61;20429;-66
2023/01/20 03:47:53;0.00;0.00;0.62;0.00;0.00;0.62;7.63;6.53;;;19.60;22.60;;;;;;2255152;61;20866;-65
2023/01/20 03:50:44;0.00;0.00;0.62;0.00;0.00;0.62;10.03;7.10;;;19.60;22.60;;;;;;2255369;61;20355;-66
2023/01/20 03:53:36;0.00;0.00;0.62;0.00;0.00;0.62;7.17;5.90;;;19.60;22.60;;;;;;2254439;61;20347;-65
2023/01/20 03:56:27;0.00;0.00;0.62;0.00;0.00;0.62;7.57;6.10;;;19.50;22.50;;;;;;2255333;61;20439;-67
2023/01/20 03:59:15;0.00;0.00;0.62;0.00;0.00;0.62;8.27;6.90;;;19.50;22.60;;;;;;2255372;61;20458;-66
2023/01/20 04:02:03;0.00;0.00;0.62;0.00;0.00;0.62;7.10;6.40;;;19.50;22.60;;;;;;2254828;61;20362;-66
2023/01/20 04:04:49;0.00;0.00;0.62;0.00;0.00;0.62;7.27;6.43;;;19.50;22.50;;;;;;2255853;61;20400;-66
2023/01/20 04:07:38;0.00;0.00;0.62;0.00;0.00;0.62;8.23;7.00;;;19.50;22.50;;;;;;2254373;61;20461;-65
2023/01/20 04:10:26;0.00;0.00;0.62;0.00;0.00;0.62;7.83;6.37;;;19.50;23.00;;;;;;2254713;61;21079;-64
2023/01/20 04:13:11;0.00;0.00;0.62;0.00;0.00;0.62;8.03;7.13;;;19.50;22.50;;;;;;2251550;61;20355;-66
2023/01/20 04:15:59;0.00;0.00;0.62;0.00;0.00;0.62;8.27;7.30;;;19.50;23.00;;;;;;2250893;61;20382;-65
2023/01/20 04:18:48;0.00;0.00;0.62;0.00;0.00;0.62;6.97;6.20;;;19.40;22.40;;;;;;2251642;61;20375;-67
2023/01/20 04:21:38;0.00;0.00;0.62;0.00;0.00;0.62;7.10;6.40;;;19.40;22.40;;;;;;2251335;61;20370;-65
2023/01/20 04:24:27;0.00;0.00;0.62;0.00;0.00;0.62;8.20;6.37;;;19.40;22.40;;;;;;2251059;61;20425;-65
2023/01/20 04:27:13;0.00;0.00;0.62;0.00;0.00;0.62;6.80;6.10;;;19.40;22.40;;;;;;2251471;61;20792;-65
2023/01/20 04:29:58;0.00;0.00;0.62;0.00;0.00;0.62;7.00;6.30;;;19.40;22.40;;;;;;2250696;61;21054;-65
2023/01/20 04:32:44;0.00;0.00;0.62;0.00;0.00;0.62;8.23;6.90;;;19.40;22.40;;;;;;2251469;61;20366;-65
2023/01/20 04:35:28;0.00;0.00;0.62;0.00;0.00;0.62;9.47;7.37;;;19.40;22.40;;;;;;2250614;61;20695;-65
2023/01/20 04:38:13;0.00;0.00;0.62;0.00;0.00;0.62;8.17;6.80;;;19.40;22.40;;;;;;2250403;61;20451;-64
2023/01/20 04:40:57;0.00;0.00;0.62;0.00;0.00;0.62;8.37;6.47;;;19.40;22.40;;;;;;2251800;61;20758;-65
2023/01/20 04:43:44;0.00;0.00;0.62;0.00;0.00;0.62;7.57;6.50;;;19.30;22.30;;;;;;2251079;61;20398;-66
2023/01/20 04:46:28;0.00;0.00;0.62;0.00;0.00;0.62;6.47;5.77;;;19.30;22.30;;;;;;2250579;61;20503;-70
2023/01/20 04:49:30;0.00;0.00;0.62;0.00;0.00;0.62;7.60;5.93;;;19.30;22.20;;;;;;2246573;61;20371;-65
2023/01/20 04:52:15;0.00;0.00;0.62;0.00;0.00;0.62;7.63;6.63;;;19.30;22.20;;;;;;2250713;61;20367;-65
2023/01/20 04:55:00;0.00;0.00;0.62;0.00;0.00;0.62;8.63;7.10;;;19.30;22.20;;;;;;2251875;61;20390;-66
2023/01/20 04:57:46;0.00;0.00;0.62;0.00;0.00;0.62;7.33;6.47;;;19.30;22.20;;;;;;2250526;61;20359;-65
2023/01/20 05:00:31;0.00;0.00;0.62;0.00;0.00;0.62;7.40;6.40;;;19.30;22.30;;;;;;2250918;61;20414;-64
2023/01/20 05:03:15;0.00;0.00;0.62;0.00;0.00;0.62;8.17;6.67;;;19.30;22.30;;;;;;2251485;61;20473;-65
2023/01/20 05:06:01;0.00;0.00;0.62;0.00;0.00;0.62;7.00;6.30;;;19.30;22.30;;;;;;2251324;61;20878;-65
2023/01/20 05:08:46;0.00;0.00;0.62;0.00;0.00;0.62;7.20;6.33;;;19.20;22.20;;;;;;2252082;61;20840;-65
2023/01/20 05:11:31;0.00;0.00;0.62;0.00;0.00;0.62;8.57;6.80;;;19.20;22.20;;;;;;2252728;61;20854;-65
2023/01/20 05:14:15;0.00;0.00;0.62;0.00;0.00;0.62;8.63;5.37;;;19.20;22.20;;;;;;2251538;61;20490;-65
2023/01/20 05:17:01;0.00;0.00;0.62;0.00;0.00;0.62;6.57;5.87;;;19.20;22.20;;;;;;2253423;61;20420;-65
2023/01/20 05:19:45;0.00;0.00;0.62;0.00;0.00;0.62;6.47;5.63;;;19.20;22.20;;;;;;2255783;61;20897;-65
2023/01/20 05:22:32;0.00;0.00;0.62;0.00;0.00;0.62;6.30;5.60;;;19.20;22.30;;;;;;2255576;61;20762;-64
2023/01/20 05:25:17;0.00;0.00;0.62;0.00;0.00;0.62;7.00;6.13;;;19.20;22.30;;;;;;2256138;61;20382;-64
2023/01/20 05:28:01;0.00;0.00;0.62;0.00;0.00;0.62;7.40;6.70;;;19.20;22.30;;;;;;2255371;61;20953;-65
2023/01/20 05:30:47;0.00;0.00;0.62;0.00;0.00;0.62;6.80;5.80;;;19.20;22.30;;;;;;2255292;61;20366;-66
2023/01/20 05:33:31;0.00;0.00;0.62;0.00;0.00;0.62;7.53;6.77;;;19.10;22.20;;;;;;2255930;61;20416;-66
2023/01/20 05:36:16;0.00;0.00;0.62;0.00;0.00;0.62;7.23;5.03;;;19.10;22.20;;;;;;2255179;61;20369;-65
2023/01/20 05:39:02;0.00;0.00;0.62;0.00;0.00;0.62;6.93;6.23;;;19.10;22.20;;;;;;2255890;61;20368;-65
2023/01/20 05:41:48;0.00;0.00;0.62;0.00;0.00;0.62;6.80;5.83;;;19.20;22.30;;;;;;2255592;61;20397;-69
2023/01/20 05:44:33;0.00;0.00;0.62;0.00;0.00;0.62;6.73;6.03;;;19.10;22.30;;;;;;2254727;61;20983;-68
2023/01/20 05:47:18;0.00;0.00;0.62;0.00;0.00;0.62;6.00;5.30;;;19.10;22.30;;;;;;2255488;61;20493;-68
2023/01/20 05:50:03;0.00;0.00;0.62;0.00;0.00;0.62;6.10;5.40;;;19.10;22.90;;;;;;2255824;61;20439;-66
2023/01/20 05:52:48;0.00;0.00;0.62;0.00;0.00;0.62;8.80;5.77;;;19.10;22.30;;;;;;2255084;61;20444;-69
2023/01/20 05:55:34;0.00;0.00;0.62;0.00;0.00;0.62;7.70;5.57;;;19.10;22.30;;;;;;2255962;61;20440;-66
2023/01/20 05:58:18;0.00;0.00;0.62;0.00;0.00;0.62;6.90;5.40;;;19.10;22.30;;;;;;2255030;61;20412;-69
2023/01/20 06:01:05;0.00;0.00;0.62;0.00;0.00;0.62;6.87;6.17;;;19.00;22.30;;;;;;2255416;61;20885;-70
2023/01/20 06:03:51;0.00;0.00;0.62;0.00;0.00;0.62;7.00;6.30;;;19.00;22.30;;;;;;2256191;61;20485;-69
2023/01/20 06:06:36;0.00;0.00;0.62;0.00;0.00;0.62;11.23;6.87;;;19.00;22.30;;;;;;2255634;61;20418;-67
2023/01/20 06:09:21;0.00;0.00;0.62;0.00;0.00;0.62;5.87;5.27;;;19.00;22.30;;;;;;2256132;61;20361;-69
2023/01/20 06:12:08;0.00;0.00;0.62;0.00;0.00;0.62;7.77;4.90;;;19.00;22.40;;;;;;2252248;61;20405;-70
2023/01/20 06:14:53;0.00;0.00;0.62;0.00;0.00;0.62;4.63;4.13;;;19.00;22.40;;;;;;2250201;61;20433;-69
2023/01/20 06:17:37;0.00;0.00;0.62;0.00;0.00;0.62;5.23;4.70;;;19.00;22.40;;;;;;2253904;61;20401;-69
2023/01/20 06:20:22;0.00;0.00;0.62;0.00;0.00;0.62;6.57;4.53;;;19.00;22.50;;;;;;2255191;61;20361;-69
2023/01/20 06:23:07;0.00;0.00;0.62;0.00;0.00;0.62;6.20;4.33;;;19.00;22.50;;;;;;2255412;61;20894;-69
2023/01/20 06:25:58;0.00;0.00;0.62;0.00;0.00;0.62;5.97;4.70;;;19.00;22.50;;;;;;2255934;61;20474;-67
2023/01/20 06:28:44;0.00;0.00;0.62;0.00;0.00;0.62;5.27;4.30;;;19.00;22.60;;;;;;2255195;61;20408;-68
2023/01/20 06:31:28;0.00;0.00;0.62;0.00;0.00;0.62;4.20;3.80;;;19.00;22.70;;;;;;2255989;61;20450;-71
2023/01/20 06:34:13;0.00;0.00;0.62;0.00;0.00;0.62;5.03;4.20;;;19.00;22.70;;;;;;2255406;61;20469;-67
2023/01/20 06:36:58;0.00;0.00;0.62;0.00;0.00;0.62;3.80;3.37;;;19.00;22.80;;;;;;2254507;61;20481;-67
2023/01/20 06:39:43;0.00;0.00;0.62;0.00;0.00;0.62;3.90;3.13;;;19.00;22.90;;;;;;2256303;61;20765;-67
2023/01/20 06:42:30;0.00;0.00;0.62;0.00;0.00;0.62;4.30;3.20;;;19.00;22.90;;;;;;2255522;61;20361;-67
2023/01/20 06:45:17;0.00;0.00;0.62;0.00;0.00;0.62;5.00;3.80;;;19.00;22.90;;;;;;2255673;61;20417;-67
2023/01/20 06:48:02;0.00;0.00;0.62;0.00;0.00;0.62;4.13;3.73;;;19.00;22.90;;;;;;2255376;61;20416;-66
2023/01/20 06:50:46;0.00;0.00;0.62;0.00;0.00;0.62;3.80;3.40;;;19.00;23.00;;;;;;2255385;61;20357;-70
2023/01/20 06:53:31;0.00;0.00;0.62;0.00;0.00;0.62;4.33;3.70;;;19.00;23.00;;;;;;2256129;61;20440;-67
2023/01/20 06:56:16;0.00;0.00;0.62;0.00;0.00;0.62;5.97;3.23;;;19.00;23.10;;;;;;2256041;61;20362;-72
2023/01/20 06:59:01;0.00;0.00;0.62;0.00;0.00;0.62;4.40;3.50;;;19.00;23.10;;;;;;2255149;61;20363;-72
2023/01/20 07:01:47;0.00;0.00;0.62;0.00;0.00;0.62;5.90;3.63;;;19.00;23.20;;;;;;2256494;61;20366;-68
2023/01/20 07:04:32;0.00;0.00;0.62;0.00;0.00;0.62;4.83;3.40;;;19.00;23.20;;;;;;2255608;61;20982;-69
2023/01/20 07:07:16;0.00;0.00;0.62;0.00;0.00;0.62;5.30;3.13;;;19.00;23.20;;;;;;2255270;61;20874;-67
2023/01/20 07:10:02;0.00;0.00;0.62;0.00;0.00;0.62;4.77;3.40;;;19.00;23.20;;;;;;2255654;61;20369;-69
2023/01/20 07:12:47;0.00;0.00;0.62;0.00;0.00;0.62;3.97;2.90;;;19.10;23.20;;;;;;2485730;53;20378;-71
2023/01/20 07:15:32;0.00;0.00;0.62;0.00;0.00;0.62;3.80;2.80;;;19.10;23.20;;;;;;2253122;61;20391;-68
2023/01/20 07:18:18;0.00;0.00;0.62;0.00;0.00;0.62;4.33;3.50;;;19.10;23.20;;;;;;2253735;61;20370;-68
2023/01/20 07:21:03;0.00;0.00;0.62;0.00;0.00;0.62;4.10;3.23;;;19.10;23.20;;;;;;2254730;61;20370;-69
2023/01/20 07:23:48;0.00;0.00;0.62;0.00;0.00;0.62;3.53;3.10;;;19.10;23.10;;;;;;2256054;61;20389;-68
2023/01/20 07:26:33;0.00;0.00;0.62;0.00;0.00;0.62;5.30;3.10;;;19.10;23.10;;;;;;2255175;61;20362;-67
2023/01/20 07:29:18;0.00;0.00;0.62;0.00;0.00;0.62;3.50;2.90;;;19.10;23.10;;;;;;2254599;61;20815;-68
2023/01/20 07:32:04;0.00;0.00;0.62;0.00;0.00;0.62;4.03;3.10;;;19.10;23.10;;;;;;2255666;61;20441;-67
2023/01/20 07:34:50;0.00;0.00;0.62;0.00;0.00;0.62;4.40;2.83;;;19.10;23.10;;;;;;2255174;61;20448;-69
2023/01/20 07:37:35;0.00;0.00;0.62;0.00;0.00;0.62;4.17;3.17;;;19.10;23.00;;;;;;2255340;61;20402;-68
2023/01/20 07:40:19;0.00;0.00;0.62;0.00;0.00;0.62;3.20;2.60;;;19.10;23.00;;;;;;2255768;61;20692;-67
2023/01/20 07:43:04;0.00;0.00;0.62;0.00;0.00;0.62;3.20;2.60;;;19.10;23.00;;;;;;2255163;61;20889;-67
2023/01/20 07:45:49;0.00;0.00;0.62;0.00;0.00;0.62;2.90;2.60;;;19.10;23.00;;;;;;2255788;61;20418;-67
2023/01/20 07:48:34;0.00;0.00;0.62;0.00;0.00;0.62;3.83;2.97;;;19.10;23.00;;;;;;2255592;61;20420;-68
2023/01/20 07:51:20;0.00;0.00;0.62;0.00;0.00;0.62;4.67;3.20;;;19.10;23.00;;;;;;2255316;61;20362;-68
2023/01/20 07:54:05;0.00;0.00;0.62;0.00;0.00;0.62;4.03;2.90;;;19.10;23.00;;;;;;2255762;61;20482;-69
2023/01/20 07:56:49;0.00;0.00;0.62;0.00;0.00;0.62;3.40;2.60;;;19.10;23.00;;;;;;2251739;61;20409;-69
2023/01/20 07:59:34;0.00;0.00;0.62;0.00;0.00;0.62;4.47;2.73;;;19.10;23.00;;;;;;2255714;61;20890;-69
2023/01/20 08:02:18;0.00;0.00;0.62;0.00;0.00;0.62;4.20;2.93;;;19.10;23.00;;;;;;2255946;61;20890;-69
2023/01/20 08:05:04;0.00;0.00;0.62;0.00;0.00;0.62;4.03;3.10;;;19.20;23.00;;;;;;2254618;61;20961;-69
2023/01/20 08:07:51;0.00;0.00;0.62;0.00;0.00;0.62;4.33;2.40;;;19.20;23.00;;;;;;2255573;61;20416;-67
2023/01/20 08:10:36;0.00;0.00;0.62;0.00;0.00;0.62;2.80;2.50;;;19.20;23.00;;;;;;2254137;61;20804;-67
2023/01/20 08:13:21;0.00;0.00;0.62;0.00;0.00;0.62;4.13;2.97;;;19.20;23.10;;;;;;2250838;61;20391;-67
2023/01/20 08:16:08;0.00;0.00;0.62;0.00;0.00;0.62;3.00;2.40;;;19.20;23.00;;;;;;2250932;61;20391;-67
2023/01/20 08:18:53;0.00;0.00;0.62;0.00;0.00;0.62;2.90;2.60;;;19.20;23.00;;;;;;2250715;61;20418;-70
2023/01/20 08:21:38;0.00;0.00;0.62;0.00;0.00;0.62;2.30;2.03;;;19.20;23.00;;;;;;2253861;61;20401;-68
2023/01/20 08:24:24;0.00;0.00;0.62;0.00;0.00;0.62;3.10;2.27;;;19.20;23.00;;;;;;2255260;61;20445;-67
2023/01/20 08:27:09;0.00;0.00;0.62;0.00;0.00;0.62;2.53;2.10;;;19.20;23.00;;;;;;2254486;61;20901;-70
2023/01/20 08:29:54;0.00;0.00;0.62;0.00;0.00;0.62;2.73;2.27;;;19.20;23.70;;;;;;2255428;61;20933;-68
2023/01/20 08:32:39;0.00;0.00;0.62;0.00;0.00;0.62;3.30;2.27;;;19.20;23.00;;;;;;2255717;61;20357;-69
2023/01/20 08:35:24;0.00;0.00;0.62;0.00;0.00;0.62;3.17;2.30;;;19.20;23.00;;;;;;2254965;61;20385;-68
2023/01/20 08:38:08;0.00;0.00;0.62;0.00;0.00;0.62;3.40;2.10;;;19.20;23.00;;;;;;2255646;61;20909;-69
2023/01/20 08:40:54;0.00;0.00;0.62;0.00;0.00;0.62;2.43;1.90;;;19.20;23.00;;;;;;2256385;61;20366;-70
2023/01/20 08:43:39;0.00;0.00;0.62;0.00;0.00;0.62;2.00;1.70;;;19.20;23.00;;;;;;2255704;61;20440;-69
2023/01/20 08:46:23;0.00;0.00;0.62;0.00;0.00;0.62;2.60;2.30;;;19.20;23.00;;;;;;2256316;61;20390;-67
2023/01/20 08:49:10;0.00;0.00;0.62;0.00;0.00;0.62;3.07;2.27;;;19.20;23.00;;;;;;2255148;61;20362;-67
2023/01/20 08:51:55;0.00;0.00;0.62;0.00;0.00;0.62;2.67;2.07;;;19.20;23.00;;;;;;2256777;61;20369;-67
2023/01/20 08:54:40;0.00;0.00;0.62;0.00;0.00;0.62;2.93;2.27;;;19.30;23.10;;;;;;2256336;61;20382;-68
2023/01/20 08:57:26;0.00;0.00;0.62;0.00;0.00;0.62;2.73;2.17;;;19.30;23.10;;;;;;2255118;61;20417;-67
2023/01/20 09:00:13;0.00;0.00;0.62;0.00;0.00;0.62;2.50;1.90;;;19.30;23.10;;;;;;2256428;61;20412;-67
2023/01/20 09:02:58;0.00;0.00;0.62;0.00;0.00;0.62;2.50;2.23;;;19.30;23.10;;;;;;2256524;61;20396;-68
2023/01/20 09:05:43;0.00;0.00;0.62;0.00;0.00;0.62;2.73;2.43;;;19.30;23.20;;;;;;2255937;61;20446;-68
2023/01/20 09:08:28;0.00;0.00;0.62;0.00;0.00;0.62;2.50;2.10;;;19.30;23.20;;;;;;2256233;61;20365;-68
2023/01/20 09:11:17;0.00;0.00;0.62;0.00;0.00;0.62;3.03;2.27;;;19.30;23.20;;;;;;2253735;61;20454;-70
2023/01/20 09:14:03;0.00;0.00;0.62;0.00;0.00;0.62;2.50;2.20;;;19.30;23.20;;;;;;2252077;61;20406;-68
2023/01/20 09:16:49;0.00;0.00;0.62;0.00;0.00;0.62;2.80;2.37;;;19.30;23.20;;;;;;2253322;61;20406;-68
2023/01/20 09:19:34;0.00;0.00;0.62;0.00;0.00;0.62;2.47;2.03;;;19.30;23.20;;;;;;2255671;61;20446;-68
2023/01/20 09:22:18;0.00;0.00;0.62;0.00;0.00;0.62;2.80;2.23;;;19.40;23.30;;;;;;2256290;61;20365;-69
2023/01/20 09:25:04;0.00;0.00;0.62;0.00;0.00;0.62;2.60;2.00;;;19.40;23.30;;;;;;2256295;61;20451;-71
2023/01/20 09:27:49;0.00;0.00;0.62;0.00;0.00;0.62;2.20;1.90;;;19.40;23.20;;;;;;2255536;61;20369;-69
2023/01/20 09:30:35;0.00;0.00;0.62;0.00;0.00;0.62;2.80;2.33;;;19.40;23.20;;;;;;2256371;61;20362;-68
2023/01/20 09:33:20;0.00;0.00;0.62;0.00;0.00;0.62;2.60;2.00;;;19.50;23.30;;;;;;2255758;61;20428;-68
2023/01/20 09:36:08;0.00;0.00;0.62;0.00;0.00;0.62;3.17;1.90;;;19.50;23.30;;;;;;2256243;61;20937;-68
2023/01/20 09:45:21;0.00;0.00;0.62;0.00;0.00;0.62;2.20;1.93;;;19.50;23.30;;;;;;2255975;61;20373;-68
2023/01/20 09:54:38;0.00;0.00;0.62;0.00;0.00;0.62;2.03;1.60;;;19.50;23.20;;;;;;2256250;61;20393;-68
2023/01/20 09:57:28;0.00;0.00;0.62;0.00;0.00;0.62;2.10;1.70;;;19.60;23.30;;;;;;2255674;61;20366;-67
2023/01/20 10:00:20;0.00;0.00;0.62;0.00;0.00;0.62;2.00;1.53;;;19.60;23.30;;;;;;2256209;61;20926;-68
2023/01/20 10:03:14;0.00;0.00;0.62;0.00;0.00;0.62;3.33;2.00;;;19.60;23.30;;;;;;2254776;61;20370;-68
2023/01/20 10:06:01;0.00;0.00;0.62;0.00;0.00;0.62;2.47;1.87;;;19.60;23.30;;;;;;2256631;61;20369;-68
2023/01/20 10:08:51;0.00;0.00;0.62;0.00;0.00;0.62;2.57;1.97;;;19.60;23.30;;;;;;2256103;61;20393;-68
2023/01/20 10:11:42;0.00;0.00;0.62;0.00;0.00;0.62;2.20;1.80;;;19.60;23.30;;;;;;2252333;61;20371;-68
2023/01/20 10:14:33;0.00;0.00;0.62;0.00;0.00;0.62;2.47;1.87;;;19.60;23.30;;;;;;2251881;61;20382;-67
2023/01/20 10:17:23;0.00;0.00;0.62;0.00;0.00;0.62;2.53;1.80;;;19.60;23.30;;;;;;2252695;61;20366;-67
2023/01/20 10:20:15;0.00;0.00;0.62;0.00;0.00;0.62;2.60;2.10;;;19.70;23.40;;;;;;2255705;61;20935;-67
2023/01/20 10:23:08;0.00;0.00;0.62;0.00;0.00;0.62;2.50;1.90;;;19.70;23.40;;;;;;2256261;61;20401;-68
2023/01/20 10:26:00;0.00;0.00;0.62;0.00;0.00;0.62;2.33;1.80;;;19.70;23.40;;;;;;2255167;61;20389;-68
2023/01/20 10:28:51;0.00;0.00;0.62;0.00;0.00;0.62;2.80;2.00;;;19.70;23.40;;;;;;2258496;61;20440;-68
2023/01/20 10:31:45;0.00;0.00;0.62;0.00;0.00;0.62;1.90;1.70;;;19.70;23.40;;;;;;2256478;61;20425;-68
2023/01/20 10:34:39;0.00;0.00;0.62;0.00;0.00;0.62;2.70;1.80;;;19.80;23.50;;;;;;2255636;61;20816;-67
2023/01/20 10:37:26;0.00;0.00;0.62;0.00;0.00;0.62;2.23;1.90;;;19.80;23.50;;;;;;2258089;61;20370;-67
2023/01/20 10:40:26;0.00;0.00;0.62;0.00;0.00;0.62;2.10;1.50;;;19.90;23.60;;;;;;2255384;61;20366;-68
2023/01/20 10:43:14;0.00;0.00;0.62;0.00;0.00;0.62;1.97;1.60;;;19.90;23.60;;;;;;2256208;61;20354;-68
2023/01/20 10:46:24;0.00;0.00;0.62;0.00;0.00;0.62;2.57;1.83;;;19.90;23.60;;;;;;2256314;61;20365;-68
2023/01/20 10:49:34;0.00;0.00;0.62;0.00;0.00;0.62;3.93;1.60;;;19.90;23.60;;;;;;2255788;61;20359;-66
2023/01/20 10:52:37;0.00;0.00;0.62;0.00;0.00;0.62;3.17;2.40;;;19.90;23.70;;;;;;2256455;61;20366;-66
2023/01/20 10:55:35;0.00;0.00;0.62;0.00;0.00;0.62;3.30;2.33;;;20.00;23.80;;;;;;2254868;61;20432;-67
2023/01/20 10:58:24;0.00;0.00;0.62;0.00;0.00;0.62;2.30;1.90;;;20.00;23.80;;;;;;2255974;61;20378;-67
2023/01/20 11:01:15;0.00;0.00;0.62;0.00;0.00;0.62;3.00;2.30;;;20.00;23.80;;;;;;2255725;61;20369;-67
2023/01/20 11:04:00;0.00;0.00;0.62;0.00;0.00;0.62;2.83;2.20;;;20.00;23.80;;;;;;2255367;61;20381;-68
2023/01/20 11:06:51;0.00;0.00;0.62;0.00;0.00;0.62;3.30;2.50;;;20.00;23.80;;;;;;2256072;61;20893;-66
2023/01/20 11:09:38;0.00;0.00;0.62;0.00;0.00;0.62;2.70;2.10;;;20.10;23.90;;;;;;2255534;61;20362;-65
2023/01/20 11:12:27;0.00;0.00;0.62;0.00;0.00;0.62;3.10;2.30;;;20.10;23.90;;;;;;2298053;58;20362;-67
2023/01/20 11:15:19;0.00;0.00;0.62;0.00;0.00;0.62;3.87;2.90;;;20.10;23.90;;;;;;2256414;61;20393;-68